Terminal Aerodrome Forecast
Issued by NWS Caribou, ME

Home | Current Version | Previous Version | Text Only | Print | Product List | Glossary On
Versions: 1 2 3 4 5 6 7 8 9 10 11 12 13 14
000
FTUS41 KCAR 291747
TAFBGR
TAF
KBGR 291747Z 2918/3018 12004KT P6SM SCT040
     FM300300 19004KT 1SM BR SCT008
     FM300500 18005KT 1/2SM FG OVC003
     FM300800 19006KT 1/4SM FG OVC002
     FM301200 19007KT 1SM BR SCT002 BKN005
     FM301400 19012G22KT P6SM SCT007=

USA.gov is the U.S. government's official web portal to all federal, state and local government web resources and services.